sensor_id;sensor_type;location;lat;lon;timestamp;P1;durP1;ratioP1;P2;durP2;ratioP2
35961;SDS011;22044;48.298;10.008;2023-02-15T00:01:53;74.70;;;20.10;;
35961;SDS011;22044;48.298;10.008;2023-02-15T00:04:39;130.27;;;24.60;;
35961;SDS011;22044;48.298;10.008;2023-02-15T00:07:33;79.23;;;20.87;;
35961;SDS011;22044;48.298;10.008;2023-02-15T00:10:21;110.33;;;23.40;;
35961;SDS011;22044;48.298;10.008;2023-02-15T00:13:08;221.00;;;26.93;;
35961;SDS011;22044;48.298;10.008;2023-02-15T00:15:54;146.60;;;24.57;;
35961;SDS011;22044;48.298;10.008;2023-02-15T00:18:44;32.97;;;19.80;;
35961;SDS011;22044;48.298;10.008;2023-02-15T00:21:30;79.87;;;20.47;;
35961;SDS011;22044;48.298;10.008;2023-02-15T00:24:17;147.33;;;22.40;;
35961;SDS011;22044;48.298;10.008;2023-02-15T00:27:05;46.00;;;19.10;;
35961;SDS011;22044;48.298;10.008;2023-02-15T00:29:52;55.07;;;19.97;;
35961;SDS011;22044;48.298;10.008;2023-02-15T00:32:38;82.63;;;21.00;;
35961;SDS011;22044;48.298;10.008;2023-02-15T00:35:23;45.10;;;19.97;;
35961;SDS011;22044;48.298;10.008;2023-02-15T00:38:09;152.73;;;23.67;;
35961;SDS011;22044;48.298;10.008;2023-02-15T00:40:57;92.00;;;21.23;;
35961;SDS011;22044;48.298;10.008;2023-02-15T00:43:45;40.87;;;19.03;;
35961;SDS011;22044;48.298;10.008;2023-02-15T00:46:30;40.43;;;19.27;;
35961;SDS011;22044;48.298;10.008;2023-02-15T00:49:17;88.90;;;19.70;;
35961;SDS011;22044;48.298;10.008;2023-02-15T00:52:02;164.40;;;24.23;;
35961;SDS011;22044;48.298;10.008;2023-02-15T00:54:48;157.07;;;23.17;;
35961;SDS011;22044;48.298;10.008;2023-02-15T00:57:34;94.50;;;20.67;;
35961;SDS011;22044;48.298;10.008;2023-02-15T01:00:21;71.90;;;21.07;;
35961;SDS011;22044;48.298;10.008;2023-02-15T01:03:07;35.67;;;19.80;;
35961;SDS011;22044;48.298;10.008;2023-02-15T01:05:53;111.20;;;21.23;;
35961;SDS011;22044;48.298;10.008;2023-02-15T01:08:39;91.10;;;20.90;;
35961;SDS011;22044;48.298;10.008;2023-02-15T01:11:25;142.63;;;22.13;;
35961;SDS011;22044;48.298;10.008;2023-02-15T01:14:11;26.47;;;19.20;;
35961;SDS011;22044;48.298;10.008;2023-02-15T01:17:00;58.27;;;20.67;;
35961;SDS011;22044;48.298;10.008;2023-02-15T01:19:46;53.57;;;18.87;;
35961;SDS011;22044;48.298;10.008;2023-02-15T01:22:32;80.87;;;20.37;;
35961;SDS011;22044;48.298;10.008;2023-02-15T01:25:19;51.77;;;17.40;;
35961;SDS011;22044;48.298;10.008;2023-02-15T01:28:06;41.73;;;17.63;;
35961;SDS011;22044;48.298;10.008;2023-02-15T01:30:53;99.37;;;19.10;;
35961;SDS011;22044;48.298;10.008;2023-02-15T01:33:39;68.50;;;18.23;;
35961;SDS011;22044;48.298;10.008;2023-02-15T01:36:27;105.20;;;18.17;;
35961;SDS011;22044;48.298;10.008;2023-02-15T01:39:14;26.87;;;17.37;;
35961;SDS011;22044;48.298;10.008;2023-02-15T01:42:00;22.93;;;16.17;;
35961;SDS011;22044;48.298;10.008;2023-02-15T01:44:46;32.50;;;18.17;;
35961;SDS011;22044;48.298;10.008;2023-02-15T01:47:37;72.13;;;19.67;;
35961;SDS011;22044;48.298;10.008;2023-02-15T01:50:30;32.77;;;17.70;;
35961;SDS011;22044;48.298;10.008;2023-02-15T01:53:26;44.23;;;18.30;;
35961;SDS011;22044;48.298;10.008;2023-02-15T01:56:17;25.03;;;16.97;;
35961;SDS011;22044;48.298;10.008;2023-02-15T01:59:08;104.77;;;21.20;;
35961;SDS011;22044;48.298;10.008;2023-02-15T02:01:59;53.53;;;17.73;;
35961;SDS011;22044;48.298;10.008;2023-02-15T02:04:48;78.77;;;17.60;;
35961;SDS011;22044;48.298;10.008;2023-02-15T02:07:37;61.10;;;17.73;;
35961;SDS011;22044;48.298;10.008;2023-02-15T02:10:27;109.83;;;18.67;;
35961;SDS011;22044;48.298;10.008;2023-02-15T02:13:14;135.13;;;21.77;;
35961;SDS011;22044;48.298;10.008;2023-02-15T02:16:02;110.93;;;18.40;;
35961;SDS011;22044;48.298;10.008;2023-02-15T02:19:03;38.13;;;16.33;;
35961;SDS011;22044;48.298;10.008;2023-02-15T02:22:20;32.63;;;18.03;;
35961;SDS011;22044;48.298;10.008;2023-02-15T02:25:27;38.77;;;17.23;;
35961;SDS011;22044;48.298;10.008;2023-02-15T02:28:43;60.97;;;17.80;;
35961;SDS011;22044;48.298;10.008;2023-02-15T02:32:02;56.73;;;18.37;;
35961;SDS011;22044;48.298;10.008;2023-02-15T02:35:10;23.77;;;15.30;;
35961;SDS011;22044;48.298;10.008;2023-02-15T02:38:03;158.00;;;21.77;;
35961;SDS011;22044;48.298;10.008;2023-02-15T02:40:56;99.53;;;19.77;;
35961;SDS011;22044;48.298;10.008;2023-02-15T02:43:54;49.20;;;17.07;;
35961;SDS011;22044;48.298;10.008;2023-02-15T02:46:50;30.97;;;17.60;;
35961;SDS011;22044;48.298;10.008;2023-02-15T02:49:38;37.33;;;16.30;;
35961;SDS011;22044;48.298;10.008;2023-02-15T02:52:38;18.57;;;14.80;;
35961;SDS011;22044;48.298;10.008;2023-02-15T02:55:25;106.63;;;18.47;;
35961;SDS011;22044;48.298;10.008;2023-02-15T02:58:15;50.87;;;16.73;;
35961;SDS011;22044;48.298;10.008;2023-02-15T03:01:06;21.10;;;15.53;;
35961;SDS011;22044;48.298;10.008;2023-02-15T03:03:58;170.03;;;19.77;;
35961;SDS011;22044;48.298;10.008;2023-02-15T03:06:50;147.93;;;19.20;;
35961;SDS011;22044;48.298;10.008;2023-02-15T03:09:43;23.27;;;13.80;;
35961;SDS011;22044;48.298;10.008;2023-02-15T03:12:34;109.30;;;18.07;;
35961;SDS011;22044;48.298;10.008;2023-02-15T03:15:24;29.97;;;15.57;;
35961;SDS011;22044;48.298;10.008;2023-02-15T03:18:31;20.70;;;14.70;;
35961;SDS011;22044;48.298;10.008;2023-02-15T03:21:23;84.97;;;17.57;;
35961;SDS011;22044;48.298;10.008;2023-02-15T03:24:16;49.77;;;16.27;;
35961;SDS011;22044;48.298;10.008;2023-02-15T03:27:09;26.13;;;15.70;;
35961;SDS011;22044;48.298;10.008;2023-02-15T03:30:00;20.40;;;14.87;;
35961;SDS011;22044;48.298;10.008;2023-02-15T03:32:50;24.50;;;14.93;;
35961;SDS011;22044;48.298;10.008;2023-02-15T03:35:38;24.73;;;14.03;;
35961;SDS011;22044;48.298;10.008;2023-02-15T03:38:30;21.93;;;14.60;;
35961;SDS011;22044;48.298;10.008;2023-02-15T03:41:21;63.70;;;16.43;;
35961;SDS011;22044;48.298;10.008;2023-02-15T03:44:13;22.23;;;14.83;;
35961;SDS011;22044;48.298;10.008;2023-02-15T03:47:03;29.50;;;16.47;;
35961;SDS011;22044;48.298;10.008;2023-02-15T03:49:53;33.50;;;15.63;;
35961;SDS011;22044;48.298;10.008;2023-02-15T03:52:41;28.07;;;15.57;;
35961;SDS011;22044;48.298;10.008;2023-02-15T03:55:27;64.70;;;17.53;;
35961;SDS011;22044;48.298;10.008;2023-02-15T03:58:12;36.30;;;15.87;;
35961;SDS011;22044;48.298;10.008;2023-02-15T04:01:18;31.27;;;16.60;;
35961;SDS011;22044;48.298;10.008;2023-02-15T04:04:42;82.10;;;18.10;;
35961;SDS011;22044;48.298;10.008;2023-02-15T04:07:30;91.67;;;18.47;;
35961;SDS011;22044;48.298;10.008;2023-02-15T04:10:16;57.20;;;17.20;;
35961;SDS011;22044;48.298;10.008;2023-02-15T04:13:19;26.83;;;16.13;;
35961;SDS011;22044;48.298;10.008;2023-02-15T04:16:05;28.13;;;16.60;;
35961;SDS011;22044;48.298;10.008;2023-02-15T04:18:52;24.93;;;15.27;;
35961;SDS011;22044;48.298;10.008;2023-02-15T04:21:55;21.97;;;14.40;;
35961;SDS011;22044;48.298;10.008;2023-02-15T04:24:58;24.50;;;14.43;;
35961;SDS011;22044;48.298;10.008;2023-02-15T04:27:56;22.90;;;15.50;;
35961;SDS011;22044;48.298;10.008;2023-02-15T04:30:41;35.77;;;15.53;;
35961;SDS011;22044;48.298;10.008;2023-02-15T04:33:28;41.57;;;15.53;;
35961;SDS011;22044;48.298;10.008;2023-02-15T04:36:15;23.43;;;14.43;;
35961;SDS011;22044;48.298;10.008;2023-02-15T04:39:01;28.10;;;14.53;;
35961;SDS011;22044;48.298;10.008;2023-02-15T04:41:46;19.23;;;14.70;;
35961;SDS011;22044;48.298;10.008;2023-02-15T04:44:32;33.67;;;16.40;;
35961;SDS011;22044;48.298;10.008;2023-02-15T04:47:18;33.77;;;14.87;;
35961;SDS011;22044;48.298;10.008;2023-02-15T04:50:04;21.63;;;14.37;;
35961;SDS011;22044;48.298;10.008;2023-02-15T04:52:51;37.00;;;15.27;;
35961;SDS011;22044;48.298;10.008;2023-02-15T04:55:37;38.13;;;14.83;;
35961;SDS011;22044;48.298;10.008;2023-02-15T04:58:23;40.50;;;14.23;;
35961;SDS011;22044;48.298;10.008;2023-02-15T05:01:08;60.87;;;15.17;;
35961;SDS011;22044;48.298;10.008;2023-02-15T05:03:54;22.60;;;14.27;;
35961;SDS011;22044;48.298;10.008;2023-02-15T05:06:39;40.23;;;14.07;;
35961;SDS011;22044;48.298;10.008;2023-02-15T05:09:28;17.47;;;13.30;;
35961;SDS011;22044;48.298;10.008;2023-02-15T05:12:14;54.17;;;14.50;;
35961;SDS011;22044;48.298;10.008;2023-02-15T05:14:59;40.17;;;13.10;;
35961;SDS011;22044;48.298;10.008;2023-02-15T05:17:45;27.77;;;13.33;;
35961;SDS011;22044;48.298;10.008;2023-02-15T05:20:30;24.67;;;13.50;;
35961;SDS011;22044;48.298;10.008;2023-02-15T05:23:16;30.77;;;14.63;;
35961;SDS011;22044;48.298;10.008;2023-02-15T05:26:03;23.07;;;13.90;;
35961;SDS011;22044;48.298;10.008;2023-02-15T05:29:06;32.30;;;13.57;;
35961;SDS011;22044;48.298;10.008;2023-02-15T05:31:52;24.73;;;12.73;;
35961;SDS011;22044;48.298;10.008;2023-02-15T05:34:38;30.33;;;13.23;;
35961;SDS011;22044;48.298;10.008;2023-02-15T05:37:23;18.63;;;13.73;;
35961;SDS011;22044;48.298;10.008;2023-02-15T05:40:09;24.90;;;14.57;;
35961;SDS011;22044;48.298;10.008;2023-02-15T05:42:57;25.23;;;13.00;;
35961;SDS011;22044;48.298;10.008;2023-02-15T05:45:44;21.80;;;11.90;;
35961;SDS011;22044;48.298;10.008;2023-02-15T05:48:30;41.57;;;13.27;;
35961;SDS011;22044;48.298;10.008;2023-02-15T05:51:16;18.50;;;14.03;;
35961;SDS011;22044;48.298;10.008;2023-02-15T05:54:02;45.77;;;16.67;;
35961;SDS011;22044;48.298;10.008;2023-02-15T05:56:47;26.20;;;14.40;;
35961;SDS011;22044;48.298;10.008;2023-02-15T05:59:34;25.87;;;13.13;;
35961;SDS011;22044;48.298;10.008;2023-02-15T06:02:20;22.47;;;13.43;;
35961;SDS011;22044;48.298;10.008;2023-02-15T06:05:06;24.33;;;12.70;;
35961;SDS011;22044;48.298;10.008;2023-02-15T06:07:51;26.20;;;13.13;;
35961;SDS011;22044;48.298;10.008;2023-02-15T06:10:37;20.10;;;13.43;;
35961;SDS011;22044;48.298;10.008;2023-02-15T06:13:23;26.03;;;14.40;;
35961;SDS011;22044;48.298;10.008;2023-02-15T06:16:10;25.90;;;14.87;;
35961;SDS011;22044;48.298;10.008;2023-02-15T06:18:56;21.17;;;13.63;;
35961;SDS011;22044;48.298;10.008;2023-02-15T06:21:43;25.13;;;13.90;;
35961;SDS011;22044;48.298;10.008;2023-02-15T06:24:28;19.30;;;14.03;;
35961;SDS011;22044;48.298;10.008;2023-02-15T06:27:14;47.33;;;15.57;;
35961;SDS011;22044;48.298;10.008;2023-02-15T06:30:00;20.90;;;13.43;;
35961;SDS011;22044;48.298;10.008;2023-02-15T06:32:47;25.23;;;13.93;;
35961;SDS011;22044;48.298;10.008;2023-02-15T06:35:33;65.23;;;15.43;;
35961;SDS011;22044;48.298;10.008;2023-02-15T06:38:18;50.03;;;15.83;;
35961;SDS011;22044;48.298;10.008;2023-02-15T06:41:04;42.67;;;14.83;;
35961;SDS011;22044;48.298;10.008;2023-02-15T06:43:50;37.30;;;15.80;;
35961;SDS011;22044;48.298;10.008;2023-02-15T06:46:35;24.60;;;14.87;;
35961;SDS011;22044;48.298;10.008;2023-02-15T06:49:22;34.67;;;15.20;;
35961;SDS011;22044;48.298;10.008;2023-02-15T06:52:08;28.43;;;15.43;;
35961;SDS011;22044;48.298;10.008;2023-02-15T06:54:54;42.20;;;16.27;;
35961;SDS011;22044;48.298;10.008;2023-02-15T06:57:40;45.57;;;16.90;;
35961;SDS011;22044;48.298;10.008;2023-02-15T07:00:25;33.13;;;18.47;;
35961;SDS011;22044;48.298;10.008;2023-02-15T07:03:13;56.43;;;18.77;;
35961;SDS011;22044;48.298;10.008;2023-02-15T07:06:01;28.97;;;18.50;;
35961;SDS011;22044;48.298;10.008;2023-02-15T07:08:52;30.60;;;16.40;;
35961;SDS011;22044;48.298;10.008;2023-02-15T07:11:37;94.60;;;19.83;;
35961;SDS011;22044;48.298;10.008;2023-02-15T07:14:44;42.23;;;15.67;;
35961;SDS011;22044;48.298;10.008;2023-02-15T07:17:29;45.57;;;15.33;;
35961;SDS011;22044;48.298;10.008;2023-02-15T07:20:15;34.20;;;16.10;;
35961;SDS011;22044;48.298;10.008;2023-02-15T07:23:04;45.93;;;17.70;;
35961;SDS011;22044;48.298;10.008;2023-02-15T07:25:55;32.63;;;17.53;;
35961;SDS011;22044;48.298;10.008;2023-02-15T07:28:41;33.13;;;15.97;;
35961;SDS011;22044;48.298;10.008;2023-02-15T07:31:27;40.60;;;16.23;;
35961;SDS011;22044;48.298;10.008;2023-02-15T07:34:13;28.77;;;15.90;;
35961;SDS011;22044;48.298;10.008;2023-02-15T07:36:59;37.97;;;17.27;;
35961;SDS011;22044;48.298;10.008;2023-02-15T07:39:49;45.30;;;17.30;;
35961;SDS011;22044;48.298;10.008;2023-02-15T07:42:35;36.23;;;17.13;;
35961;SDS011;22044;48.298;10.008;2023-02-15T07:45:21;28.67;;;18.00;;
35961;SDS011;22044;48.298;10.008;2023-02-15T07:48:06;34.87;;;19.07;;
35961;SDS011;22044;48.298;10.008;2023-02-15T07:50:52;40.60;;;18.43;;
35961;SDS011;22044;48.298;10.008;2023-02-15T07:53:38;33.00;;;18.13;;
35961;SDS011;22044;48.298;10.008;2023-02-15T07:56:25;35.30;;;20.10;;
35961;SDS011;22044;48.298;10.008;2023-02-15T07:59:10;33.37;;;18.83;;
35961;SDS011;22044;48.298;10.008;2023-02-15T08:01:55;31.23;;;19.37;;
35961;SDS011;22044;48.298;10.008;2023-02-15T08:04:41;38.33;;;19.43;;
35961;SDS011;22044;48.298;10.008;2023-02-15T08:07:27;30.50;;;19.20;;
35961;SDS011;22044;48.298;10.008;2023-02-15T08:10:12;35.77;;;19.87;;
35961;SDS011;22044;48.298;10.008;2023-02-15T08:13:19;31.20;;;19.90;;
35961;SDS011;22044;48.298;10.008;2023-02-15T08:16:06;44.20;;;21.17;;
35961;SDS011;22044;48.298;10.008;2023-02-15T08:18:52;36.40;;;19.10;;
35961;SDS011;22044;48.298;10.008;2023-02-15T08:21:38;37.10;;;20.23;;
35961;SDS011;22044;48.298;10.008;2023-02-15T08:24:25;33.33;;;18.87;;
35961;SDS011;22044;48.298;10.008;2023-02-15T08:27:14;30.03;;;20.00;;
35961;SDS011;22044;48.298;10.008;2023-02-15T08:30:00;36.47;;;19.17;;
35961;SDS011;22044;48.298;10.008;2023-02-15T08:32:48;27.80;;;18.80;;
35961;SDS011;22044;48.298;10.008;2023-02-15T08:35:33;29.63;;;19.37;;
35961;SDS011;22044;48.298;10.008;2023-02-15T08:38:19;40.60;;;19.07;;
35961;SDS011;22044;48.298;10.008;2023-02-15T08:41:09;39.20;;;20.17;;
35961;SDS011;22044;48.298;10.008;2023-02-15T08:43:59;33.53;;;19.43;;
35961;SDS011;22044;48.298;10.008;2023-02-15T08:46:48;33.03;;;20.80;;
35961;SDS011;22044;48.298;10.008;2023-02-15T08:49:34;36.07;;;19.73;;
35961;SDS011;22044;48.298;10.008;2023-02-15T08:52:20;29.63;;;20.00;;
35961;SDS011;22044;48.298;10.008;2023-02-15T08:55:06;76.47;;;21.57;;
35961;SDS011;22044;48.298;10.008;2023-02-15T08:57:52;29.33;;;19.87;;
35961;SDS011;22044;48.298;10.008;2023-02-15T09:00:39;31.83;;;20.73;;
35961;SDS011;22044;48.298;10.008;2023-02-15T09:03:26;33.47;;;19.80;;
35961;SDS011;22044;48.298;10.008;2023-02-15T09:06:13;35.03;;;19.33;;
35961;SDS011;22044;48.298;10.008;2023-02-15T09:09:01;40.37;;;20.67;;
35961;SDS011;22044;48.298;10.008;2023-02-15T09:11:47;41.63;;;21.40;;
35961;SDS011;22044;48.298;10.008;2023-02-15T09:14:34;39.73;;;21.57;;
35961;SDS011;22044;48.298;10.008;2023-02-15T09:17:19;34.80;;;22.13;;
35961;SDS011;22044;48.298;10.008;2023-02-15T09:20:07;34.67;;;22.63;;
35961;SDS011;22044;48.298;10.008;2023-02-15T09:22:53;39.80;;;22.00;;
35961;SDS011;22044;48.298;10.008;2023-02-15T09:25:39;32.83;;;21.07;;
35961;SDS011;22044;48.298;10.008;2023-02-15T09:28:26;51.73;;;22.57;;
35961;SDS011;22044;48.298;10.008;2023-02-15T09:31:12;35.77;;;21.70;;
35961;SDS011;22044;48.298;10.008;2023-02-15T09:33:59;38.20;;;20.93;;
35961;SDS011;22044;48.298;10.008;2023-02-15T09:36:46;42.73;;;22.53;;
35961;SDS011;22044;48.298;10.008;2023-02-15T09:39:32;52.90;;;25.33;;
35961;SDS011;22044;48.298;10.008;2023-02-15T09:42:26;36.50;;;23.23;;
35961;SDS011;22044;48.298;10.008;2023-02-15T09:45:40;37.27;;;22.80;;
35961;SDS011;22044;48.298;10.008;2023-02-15T09:48:38;36.50;;;24.03;;
35961;SDS011;22044;48.298;10.008;2023-02-15T09:51:32;38.77;;;23.77;;
35961;SDS011;22044;48.298;10.008;2023-02-15T09:54:39;36.20;;;23.43;;
35961;SDS011;22044;48.298;10.008;2023-02-15T09:57:37;36.43;;;23.50;;
35961;SDS011;22044;48.298;10.008;2023-02-15T10:00:27;38.77;;;23.60;;
35961;SDS011;22044;48.298;10.008;2023-02-15T10:03:38;41.13;;;24.20;;
35961;SDS011;22044;48.298;10.008;2023-02-15T10:06:35;43.33;;;25.43;;
35961;SDS011;22044;48.298;10.008;2023-02-15T10:09:30;39.10;;;24.43;;
35961;SDS011;22044;48.298;10.008;2023-02-15T10:12:44;38.60;;;24.00;;
35961;SDS011;22044;48.298;10.008;2023-02-15T10:15:49;41.43;;;24.93;;
35961;SDS011;22044;48.298;10.008;2023-02-15T10:18:45;37.10;;;24.47;;
35961;SDS011;22044;48.298;10.008;2023-02-15T10:21:41;38.60;;;25.37;;
35961;SDS011;22044;48.298;10.008;2023-02-15T10:24:46;44.00;;;26.97;;
35961;SDS011;22044;48.298;10.008;2023-02-15T10:27:44;38.53;;;25.57;;
35961;SDS011;22044;48.298;10.008;2023-02-15T10:30:33;41.73;;;25.77;;
35961;SDS011;22044;48.298;10.008;2023-02-15T10:33:37;49.10;;;30.20;;
35961;SDS011;22044;48.298;10.008;2023-02-15T10:36:28;59.37;;;36.30;;
35961;SDS011;22044;48.298;10.008;2023-02-15T10:39:25;39.17;;;26.47;;
35961;SDS011;22044;48.298;10.008;2023-02-15T10:42:19;39.60;;;26.97;;
35961;SDS011;22044;48.298;10.008;2023-02-15T10:45:13;34.47;;;24.03;;
35961;SDS011;22044;48.298;10.008;2023-02-15T10:48:16;36.47;;;24.87;;
35961;SDS011;22044;48.298;10.008;2023-02-15T10:51:08;35.93;;;24.97;;
35961;SDS011;22044;48.298;10.008;2023-02-15T10:54:05;35.93;;;25.43;;
35961;SDS011;22044;48.298;10.008;2023-02-15T10:56:59;35.97;;;24.67;;
35961;SDS011;22044;48.298;10.008;2023-02-15T11:00:02;36.27;;;25.33;;
35961;SDS011;22044;48.298;10.008;2023-02-15T11:03:02;38.33;;;25.03;;
35961;SDS011;22044;48.298;10.008;2023-02-15T11:06:01;35.20;;;24.03;;
35961;SDS011;22044;48.298;10.008;2023-02-15T11:08:54;36.93;;;25.47;;
35961;SDS011;22044;48.298;10.008;2023-02-15T11:11:44;35.87;;;25.07;;
35961;SDS011;22044;48.298;10.008;2023-02-15T11:14:35;34.97;;;24.63;;
35961;SDS011;22044;48.298;10.008;2023-02-15T11:17:28;36.60;;;26.50;;
35961;SDS011;22044;48.298;10.008;2023-02-15T11:20:21;35.30;;;26.03;;
35961;SDS011;22044;48.298;10.008;2023-02-15T11:23:12;36.30;;;25.43;;
35961;SDS011;22044;48.298;10.008;2023-02-15T11:26:02;36.37;;;24.80;;
35961;SDS011;22044;48.298;10.008;2023-02-15T11:28:51;38.93;;;26.43;;
35961;SDS011;22044;48.298;10.008;2023-02-15T11:31:41;35.33;;;25.27;;
35961;SDS011;22044;48.298;10.008;2023-02-15T11:34:31;40.70;;;27.60;;
35961;SDS011;22044;48.298;10.008;2023-02-15T11:37:19;39.70;;;27.13;;
35961;SDS011;22044;48.298;10.008;2023-02-15T11:40:14;39.23;;;27.40;;
35961;SDS011;22044;48.298;10.008;2023-02-15T11:43:04;33.40;;;25.57;;
35961;SDS011;22044;48.298;10.008;2023-02-15T11:45:56;34.20;;;25.90;;
35961;SDS011;22044;48.298;10.008;2023-02-15T11:48:41;38.30;;;27.07;;
35961;SDS011;22044;48.298;10.008;2023-02-15T11:51:29;38.47;;;27.90;;
35961;SDS011;22044;48.298;10.008;2023-02-15T11:54:14;36.67;;;26.93;;
35961;SDS011;22044;48.298;10.008;2023-02-15T11:57:01;39.90;;;28.43;;
35961;SDS011;22044;48.298;10.008;2023-02-15T11:59:58;42.50;;;29.67;;
35961;SDS011;22044;48.298;10.008;2023-02-15T12:02:52;40.40;;;28.03;;
35961;SDS011;22044;48.298;10.008;2023-02-15T12:05:40;41.17;;;29.23;;
35961;SDS011;22044;48.298;10.008;2023-02-15T12:08:36;43.20;;;29.57;;
35961;SDS011;22044;48.298;10.008;2023-02-15T12:11:26;42.77;;;29.27;;
35961;SDS011;22044;48.298;10.008;2023-02-15T12:14:16;39.23;;;28.90;;
35961;SDS011;22044;48.298;10.008;2023-02-15T12:17:02;40.53;;;28.73;;
35961;SDS011;22044;48.298;10.008;2023-02-15T12:19:49;42.47;;;28.97;;
35961;SDS011;22044;48.298;10.008;2023-02-15T12:22:36;38.50;;;28.90;;
35961;SDS011;22044;48.298;10.008;2023-02-15T12:25:24;40.90;;;29.27;;
35961;SDS011;22044;48.298;10.008;2023-02-15T12:28:19;39.77;;;28.20;;
35961;SDS011;22044;48.298;10.008;2023-02-15T12:31:24;37.90;;;27.87;;
35961;SDS011;22044;48.298;10.008;2023-02-15T12:34:16;40.50;;;28.20;;
35961;SDS011;22044;48.298;10.008;2023-02-15T12:37:09;38.37;;;27.07;;
35961;SDS011;22044;48.298;10.008;2023-02-15T12:40:02;34.50;;;27.07;;
35961;SDS011;22044;48.298;10.008;2023-02-15T12:43:08;37.70;;;28.50;;
35961;SDS011;22044;48.298;10.008;2023-02-15T12:46:14;40.93;;;29.07;;
35961;SDS011;22044;48.298;10.008;2023-02-15T12:49:07;40.73;;;28.90;;
35961;SDS011;22044;48.298;10.008;2023-02-15T12:51:59;37.60;;;27.83;;
35961;SDS011;22044;48.298;10.008;2023-02-15T12:54:47;39.27;;;28.47;;
35961;SDS011;22044;48.298;10.008;2023-02-15T12:57:33;39.37;;;28.10;;
35961;SDS011;22044;48.298;10.008;2023-02-15T13:00:29;35.20;;;27.37;;
35961;SDS011;22044;48.298;10.008;2023-02-15T13:03:16;36.70;;;28.13;;
35961;SDS011;22044;48.298;10.008;2023-02-15T13:06:04;38.30;;;27.80;;
35961;SDS011;22044;48.298;10.008;2023-02-15T13:08:52;41.33;;;29.37;;
35961;SDS011;22044;48.298;10.008;2023-02-15T13:11:39;39.53;;;28.00;;
35961;SDS011;22044;48.298;10.008;2023-02-15T13:14:28;39.37;;;27.90;;
35961;SDS011;22044;48.298;10.008;2023-02-15T13:17:17;40.40;;;29.23;;
35961;SDS011;22044;48.298;10.008;2023-02-15T13:20:16;36.87;;;28.23;;
35961;SDS011;22044;48.298;10.008;2023-02-15T13:23:08;40.00;;;29.33;;
35961;SDS011;22044;48.298;10.008;2023-02-15T13:26:08;37.63;;;28.70;;
35961;SDS011;22044;48.298;10.008;2023-02-15T13:29:00;40.97;;;30.47;;
35961;SDS011;22044;48.298;10.008;2023-02-15T13:31:52;40.70;;;30.53;;
35961;SDS011;22044;48.298;10.008;2023-02-15T13:34:42;41.37;;;29.57;;
35961;SDS011;22044;48.298;10.008;2023-02-15T13:37:39;43.00;;;31.07;;
35961;SDS011;22044;48.298;10.008;2023-02-15T13:40:46;40.63;;;30.40;;
35961;SDS011;22044;48.298;10.008;2023-02-15T13:43:40;38.23;;;30.60;;
35961;SDS011;22044;48.298;10.008;2023-02-15T13:46:36;41.17;;;28.20;;
35961;SDS011;22044;48.298;10.008;2023-02-15T13:49:40;40.40;;;29.60;;
35961;SDS011;22044;48.298;10.008;2023-02-15T13:52:38;44.57;;;30.40;;
35961;SDS011;22044;48.298;10.008;2023-02-15T13:55:31;41.50;;;31.13;;
35961;SDS011;22044;48.298;10.008;2023-02-15T13:58:25;40.43;;;30.03;;
35961;SDS011;22044;48.298;10.008;2023-02-15T14:01:31;42.40;;;29.17;;
35961;SDS011;22044;48.298;10.008;2023-02-15T14:04:40;40.73;;;27.80;;
35961;SDS011;22044;48.298;10.008;2023-02-15T14:07:51;40.03;;;29.40;;
35961;SDS011;22044;48.298;10.008;2023-02-15T14:10:46;36.20;;;27.73;;
35961;SDS011;22044;48.298;10.008;2023-02-15T14:13:52;36.03;;;28.07;;
35961;SDS011;22044;48.298;10.008;2023-02-15T14:16:52;41.77;;;30.30;;
35961;SDS011;22044;48.298;10.008;2023-02-15T14:19:45;40.23;;;28.53;;
35961;SDS011;22044;48.298;10.008;2023-02-15T14:22:36;42.17;;;28.73;;
35961;SDS011;22044;48.298;10.008;2023-02-15T14:25:27;35.07;;;27.60;;
35961;SDS011;22044;48.298;10.008;2023-02-15T14:28:18;41.80;;;29.17;;
35961;SDS011;22044;48.298;10.008;2023-02-15T14:31:14;35.80;;;26.93;;
35961;SDS011;22044;48.298;10.008;2023-02-15T14:34:04;36.87;;;28.40;;
35961;SDS011;22044;48.298;10.008;2023-02-15T14:36:51;39.67;;;28.57;;
35961;SDS011;22044;48.298;10.008;2023-02-15T14:39:42;37.03;;;27.83;;
35961;SDS011;22044;48.298;10.008;2023-02-15T14:42:51;36.43;;;27.87;;
35961;SDS011;22044;48.298;10.008;2023-02-15T14:45:46;38.53;;;27.57;;
35961;SDS011;22044;48.298;10.008;2023-02-15T14:48:37;39.83;;;27.70;;
35961;SDS011;22044;48.298;10.008;2023-02-15T14:54:59;35.93;;;26.20;;
35961;SDS011;22044;48.298;10.008;2023-02-15T14:57:51;35.07;;;26.37;;
35961;SDS011;22044;48.298;10.008;2023-02-15T15:00:42;34.57;;;26.60;;
35961;SDS011;22044;48.298;10.008;2023-02-15T15:03:27;36.70;;;26.37;;
35961;SDS011;22044;48.298;10.008;2023-02-15T15:06:23;35.93;;;27.77;;
35961;SDS011;22044;48.298;10.008;2023-02-15T15:09:11;39.73;;;25.93;;
35961;SDS011;22044;48.298;10.008;2023-02-15T15:12:14;33.57;;;26.00;;
35961;SDS011;22044;48.298;10.008;2023-02-15T15:15:32;35.30;;;25.83;;
35961;SDS011;22044;48.298;10.008;2023-02-15T15:24:50;32.13;;;25.80;;
35961;SDS011;22044;48.298;10.008;2023-02-15T15:27:43;34.73;;;26.70;;
35961;SDS011;22044;48.298;10.008;2023-02-15T15:40:42;39.30;;;26.07;;
35961;SDS011;22044;48.298;10.008;2023-02-15T15:44:17;34.07;;;25.70;;
35961;SDS011;22044;48.298;10.008;2023-02-15T15:47:21;45.33;;;26.17;;
35961;SDS011;22044;48.298;10.008;2023-02-15T15:50:17;34.20;;;24.73;;
35961;SDS011;22044;48.298;10.008;2023-02-15T15:53:04;32.10;;;24.80;;
35961;SDS011;22044;48.298;10.008;2023-02-15T15:55:50;36.67;;;25.30;;
35961;SDS011;22044;48.298;10.008;2023-02-15T15:58:41;34.03;;;24.73;;
35961;SDS011;22044;48.298;10.008;2023-02-15T16:01:35;31.57;;;24.93;;
35961;SDS011;22044;48.298;10.008;2023-02-15T16:04:26;30.50;;;24.37;;
35961;SDS011;22044;48.298;10.008;2023-02-15T16:07:18;31.47;;;23.70;;
35961;SDS011;22044;48.298;10.008;2023-02-15T16:10:19;32.53;;;25.30;;
35961;SDS011;22044;48.298;10.008;2023-02-15T16:13:06;30.47;;;24.67;;
35961;SDS011;22044;48.298;10.008;2023-02-15T16:15:52;30.93;;;24.03;;
35961;SDS011;22044;48.298;10.008;2023-02-15T16:18:40;32.23;;;25.83;;
35961;SDS011;22044;48.298;10.008;2023-02-15T16:21:28;30.80;;;24.10;;
35961;SDS011;22044;48.298;10.008;2023-02-15T16:24:20;34.67;;;25.10;;
35961;SDS011;22044;48.298;10.008;2023-02-15T16:27:19;32.97;;;24.43;;
35961;SDS011;22044;48.298;10.008;2023-02-15T16:30:17;32.43;;;25.10;;
35961;SDS011;22044;48.298;10.008;2023-02-15T16:33:13;36.03;;;26.90;;
35961;SDS011;22044;48.298;10.008;2023-02-15T16:36:01;33.37;;;25.77;;
35961;SDS011;22044;48.298;10.008;2023-02-15T16:39:07;39.17;;;26.90;;
35961;SDS011;22044;48.298;10.008;2023-02-15T16:42:01;33.97;;;26.17;;
35961;SDS011;22044;48.298;10.008;2023-02-15T16:44:49;35.77;;;25.87;;
35961;SDS011;22044;48.298;10.008;2023-02-15T16:47:40;32.00;;;25.60;;